Time;durP1;ratioP1;P1;durP2;ratioP2;P2;SDS_P1;SDS_P2;PMS_P1;PMS_P2;Temp;Humidity;BMP_temperature;BMP_pressure;BME280_temperature;BME280_humidity;BME280_pressure;Samples;Min_cycle;Max_cycle;Signal;HPM_P1;HPM_P2
2022/12/01 00:00:35;;;;;;;;;;;14.80;97.90;;;;;;5073979;28;20007;-66
2022/12/01 00:03:00;;;;;;;;;;;14.70;97.90;;;;;;5071490;28;19925;-65
2022/12/01 00:05:26;;;;;;;;;;;14.70;97.90;;;;;;5053820;28;19925;-69
2022/12/01 00:07:51;;;;;;;;;;;14.60;97.90;;;;;;5053794;28;20414;-66
2022/12/01 00:10:27;;;;;;;;;;;14.60;97.90;;;;;;5053717;28;19936;-67
2022/12/01 00:12:56;;;;;;;;;;;14.50;97.80;;;;;;5051963;28;19925;-64
2022/12/01 00:15:22;;;;;;;;;;;14.80;97.80;;;;;;5065713;28;19931;-66
2022/12/01 00:17:48;;;;;;;;;;;14.70;97.80;;;;;;5071837;28;19924;-65
2022/12/01 00:20:14;;;;;;;;;;;14.60;97.70;;;;;;5088798;28;19924;-66
2022/12/01 00:22:46;;;;;;;;;;;14.50;97.70;;;;;;5056092;28;19925;-65
2022/12/01 00:25:12;;;;;;;;;;;14.80;97.80;;;;;;5073293;28;19924;-65
2022/12/01 00:27:38;;;;;;;;;;;14.60;97.70;;;;;;5072447;28;19925;-65
2022/12/01 00:30:04;;;;;;;;;;;14.50;97.60;;;;;;5071349;28;20042;-65
2022/12/01 00:32:30;;;;;;;;;;;14.60;97.60;;;;;;5091149;28;20309;-65
2022/12/01 00:34:55;;;;;;;;;;;14.40;97.60;;;;;;5071828;28;19932;-65
2022/12/01 00:37:21;;;;;;;;;;;14.60;97.60;;;;;;5067690;28;19932;-66
2022/12/01 00:39:47;;;;;;;;;;;14.50;97.60;;;;;;5053473;28;20360;-65
2022/12/01 00:42:12;;;;;;;;;;;14.50;97.60;;;;;;5053269;28;19924;-65
2022/12/01 00:44:38;;;;;;;;;;;14.30;97.50;;;;;;5053196;28;19931;-65
2022/12/01 00:47:03;;;;;;;;;;;14.30;97.60;;;;;;5053403;28;19925;-65
2022/12/01 00:49:29;;;;;;;;;;;14.50;97.60;;;;;;5062405;28;19925;-66
2022/12/01 00:51:55;;;;;;;;;;;14.40;97.60;;;;;;5072540;28;20345;-66
2022/12/01 00:54:20;;;;;;;;;;;14.70;97.70;;;;;;5069045;28;19925;-65
2022/12/01 00:56:46;;;;;;;;;;;14.60;97.70;;;;;;5052053;28;19925;-65
2022/12/01 00:59:12;;;;;;;;;;;14.70;97.60;;;;;;5055765;28;20378;-66
2022/12/01 01:01:38;;;;;;;;;;;14.50;97.60;;;;;;5056894;28;20007;-67
2022/12/01 01:04:03;;;;;;;;;;;14.40;97.60;;;;;;5056846;28;19931;-65
2022/12/01 01:06:29;;;;;;;;;;;14.30;97.60;;;;;;5055607;28;20011;-66
2022/12/01 01:08:55;;;;;;;;;;;14.50;97.50;;;;;;5065996;28;19931;-65
2022/12/01 01:11:20;;;;;;;;;;;14.40;97.50;;;;;;5071814;28;19925;-68
2022/12/01 01:13:46;;;;;;;;;;;14.40;97.40;;;;;;5072451;28;19925;-67
2022/12/01 01:16:15;;;;;;;;;;;14.50;97.50;;;;;;5075052;28;19969;-66
2022/12/01 01:18:41;;;;;;;;;;;14.80;97.60;;;;;;5111011;27;20390;-66
2022/12/01 01:21:07;;;;;;;;;;;14.60;97.60;;;;;;5076184;28;19935;-65
2022/12/01 01:23:33;;;;;;;;;;;14.40;97.30;;;;;;5073633;28;19925;-66
2022/12/01 01:26:06;;;;;;;;;;;14.50;97.50;;;;;;5060702;28;19947;-65
2022/12/01 01:28:31;;;;;;;;;;;14.70;97.60;;;;;;5072101;28;19925;-65
2022/12/01 01:30:57;;;;;;;;;;;14.40;97.40;;;;;;5066756;28;20313;-65
2022/12/01 01:33:23;;;;;;;;;;;14.30;97.50;;;;;;5057355;28;19924;-65
2022/12/01 01:35:48;;;;;;;;;;;14.50;97.50;;;;;;5075025;28;19925;-65
2022/12/01 01:38:14;;;;;;;;;;;14.50;97.50;;;;;;5077968;28;19921;-66
2022/12/01 01:40:43;;;;;;;;;;;14.30;97.40;;;;;;5053816;28;19979;-66
2022/12/01 01:43:09;;;;;;;;;;;;;;;;;;5073819;28;20309;-65
2022/12/01 01:45:35;;;;;;;;;;;14.40;97.50;;;;;;5069643;28;20386;-66
2022/12/01 01:48:02;;;;;;;;;;;14.50;97.50;;;;;;5068082;28;20031;-65
2022/12/01 01:50:28;;;;;;;;;;;14.20;97.40;;;;;;5059225;28;19972;-65
2022/12/01 01:52:57;;;;;;;;;;;14.40;97.40;;;;;;5073202;28;20367;-65
2022/12/01 01:55:23;;;;;;;;;;;14.30;97.40;;;;;;5070131;28;19925;-66
2022/12/01 01:57:48;;;;;;;;;;;14.40;97.30;;;;;;5066140;28;20020;-66
2022/12/01 02:00:16;;;;;;;;;;;14.30;97.40;;;;;;5072022;28;19925;-65
2022/12/01 02:02:42;;;;;;;;;;;14.40;97.40;;;;;;5059023;28;19970;-66
2022/12/01 02:05:10;;;;;;;;;;;14.30;97.40;;;;;;5054232;28;20008;-65
2022/12/01 02:07:36;;;;;;;;;;;14.30;97.40;;;;;;5064962;28;19932;-65
2022/12/01 02:10:02;;;;;;;;;;;;;;;;;;5085805;28;19932;-67
2022/12/01 02:12:28;;;;;;;;;;;;;;;;;;5074606;28;19924;-66
2022/12/01 02:14:54;;;;;;;;;;;;;;;;;;5072552;28;19971;-65
2022/12/01 02:17:30;;;;;;;;;;;14.40;97.40;;;;;;5072783;28;19986;-65
2022/12/01 02:20:15;;;;;;;;;;;14.30;97.30;;;;;;5087057;28;20405;-66
2022/12/01 02:22:47;;;;;;;;;;;14.40;97.30;;;;;;5073364;28;20007;-70
2022/12/01 02:25:16;;;;;;;;;;;14.60;97.40;;;;;;5056979;28;20090;-66
2022/12/01 02:28:00;;;;;;;;;;;14.60;97.30;;;;;;5072848;28;19931;-66
2022/12/01 02:30:39;;;;;;;;;;;14.40;97.30;;;;;;5076569;28;19928;-66
2022/12/01 02:33:13;;;;;;;;;;;14.50;97.40;;;;;;5090402;28;19924;-68
2022/12/01 02:35:39;;;;;;;;;;;14.30;97.30;;;;;;5073338;28;19975;-68
2022/12/01 02:38:10;;;;;;;;;;;14.40;97.30;;;;;;5053008;28;19959;-68
2022/12/01 02:40:40;;;;;;;;;;;14.30;97.30;;;;;;5037076;28;20298;-67
2022/12/01 02:43:06;;;;;;;;;;;;;;;;;;5037211;28;19929;-69
2022/12/01 02:45:35;;;;;;;;;;;14.50;97.40;;;;;;5053439;28;19932;-68
2022/12/01 02:48:02;;;;;;;;;;;14.20;97.30;;;;;;5060117;28;19924;-68
2022/12/01 02:50:28;;;;;;;;;;;;;;;;;;5076667;28;19947;-68
2022/12/01 02:52:53;;;;;;;;;;;14.20;97.30;;;;;;5072499;28;19925;-68
2022/12/01 02:55:19;;;;;;;;;;;14.30;97.30;;;;;;5053538;28;19925;-65
2022/12/01 02:57:45;;;;;;;;;;;14.30;97.20;;;;;;5054411;28;19976;-65
2022/12/01 03:00:12;;;;;;;;;;;14.00;97.10;;;;;;5055514;28;19932;-65
2022/12/01 03:02:41;;;;;;;;;;;;;;;;;;5072497;28;19947;-67
2022/12/01 03:05:25;;;;;;;;;;;14.40;97.20;;;;;;5076323;28;20011;-66
2022/12/01 03:08:06;;;;;;;;;;;14.50;97.20;;;;;;5074319;28;20018;-67
2022/12/01 03:10:32;;;;;;;;;;;;;;;;;;5068653;28;19925;-66
2022/12/01 03:13:01;;;;;;;;;;;14.30;97.20;;;;;;5066437;28;19929;-67
2022/12/01 03:15:29;;;;;;;;;;;14.20;97.30;;;;;;5073600;28;20000;-66
2022/12/01 03:18:07;;;;;;;;;;;14.40;97.40;;;;;;5071899;28;19963;-66
2022/12/01 03:20:32;;;;;;;;;;;14.70;97.50;;;;;;5056122;28;19928;-66
2022/12/01 03:22:58;;;;;;;;;;;;;;;;;;5071901;28;19932;-68
2022/12/01 03:25:25;;;;;;;;;;;14.60;97.40;;;;;;5089788;28;19931;-65
2022/12/01 03:27:55;;;;;;;;;;;14.40;97.40;;;;;;5088679;28;19963;-66
2022/12/01 03:30:22;;;;;;;;;;;14.40;97.30;;;;;;5055380;28;19931;-66
2022/12/01 03:32:49;;;;;;;;;;;14.40;97.40;;;;;;5055526;28;20069;-65
2022/12/01 03:35:28;;;;;;;;;;;14.20;97.30;;;;;;5054666;28;19925;-66
2022/12/01 03:38:11;;;;;;;;;;;14.50;97.30;;;;;;5071111;28;20305;-68
2022/12/01 03:40:37;;;;;;;;;;;14.40;97.30;;;;;;5055510;28;20412;-66
2022/12/01 03:43:03;;;;;;;;;;;14.40;97.30;;;;;;5072142;28;19921;-66
2022/12/01 03:45:33;;;;;;;;;;;14.20;97.30;;;;;;5088017;28;19924;-66
2022/12/01 03:47:59;;;;;;;;;;;;;;;;;;5070584;28;20019;-67
2022/12/01 03:50:30;;;;;;;;;;;14.30;97.30;;;;;;5071535;28;20013;-66
2022/12/01 03:53:06;;;;;;;;;;;14.30;97.30;;;;;;5084217;28;19924;-65
2022/12/01 03:55:32;;;;;;;;;;;14.30;97.30;;;;;;5088553;28;19932;-66
2022/12/01 03:58:05;;;;;;;;;;;14.50;97.30;;;;;;5087705;28;19925;-65
2022/12/01 04:00:31;;;;;;;;;;;14.10;97.30;;;;;;5072139;28;19977;-66
2022/12/01 04:02:57;;;;;;;;;;;14.30;97.30;;;;;;5054939;28;20011;-66
2022/12/01 04:05:23;;;;;;;;;;;14.30;97.30;;;;;;5039030;28;19925;-66
2022/12/01 04:07:49;;;;;;;;;;;;;;;;;;5055752;28;19932;-67
2022/12/01 04:10:15;;;;;;;;;;;14.30;97.20;;;;;;5071598;28;19931;-65
2022/12/01 04:12:40;;;;;;;;;;;14.30;97.20;;;;;;5070731;28;20015;-65
2022/12/01 04:15:07;;;;;;;;;;;14.30;97.20;;;;;;5071862;28;19924;-68
2022/12/01 04:17:32;;;;;;;;;;;14.20;97.20;;;;;;5071451;28;19924;-66
2022/12/01 04:19:58;;;;;;;;;;;14.40;97.30;;;;;;5071590;28;20020;-66
2022/12/01 04:22:24;;;;;;;;;;;14.50;97.30;;;;;;5071992;28;20271;-65
2022/12/01 04:24:50;;;;;;;;;;;14.40;97.30;;;;;;5073646;28;19960;-67
2022/12/01 04:27:15;;;;;;;;;;;14.30;97.20;;;;;;5071500;28;20394;-65
2022/12/01 04:29:41;;;;;;;;;;;14.20;97.20;;;;;;5074422;28;20019;-68
2022/12/01 04:32:07;;;;;;;;;;;14.50;97.30;;;;;;5072593;28;19963;-66
2022/12/01 04:34:32;;;;;;;;;;;14.40;97.30;;;;;;5073975;28;20007;-66
2022/12/01 04:36:58;;;;;;;;;;;14.20;97.20;;;;;;5075341;28;19928;-65
2022/12/01 04:39:23;;;;;;;;;;;14.30;97.20;;;;;;5076979;28;19924;-65
2022/12/01 04:41:49;;;;;;;;;;;14.50;97.30;;;;;;5076647;28;19935;-65
2022/12/01 04:44:15;;;;;;;;;;;;;;;;;;5077209;28;19925;-66
2022/12/01 04:46:41;;;;;;;;;;;;;;;;;;5075392;28;19971;-68
2022/12/01 04:49:07;;;;;;;;;;;14.30;97.20;;;;;;5078850;28;20271;-65
2022/12/01 04:51:32;;;;;;;;;;;14.10;97.20;;;;;;5075367;28;19974;-65
2022/12/01 04:53:58;;;;;;;;;;;14.30;97.30;;;;;;5066690;28;19924;-65
2022/12/01 04:56:23;;;;;;;;;;;14.30;97.20;;;;;;5075777;28;19924;-65
2022/12/01 04:58:49;;;;;;;;;;;14.20;97.30;;;;;;5077317;28;19932;-65
2022/12/01 05:01:15;;;;;;;;;;;14.60;97.30;;;;;;5109311;28;19995;-65
2022/12/01 05:03:42;;;;;;;;;;;14.00;97.20;;;;;;5059057;28;20307;-65
2022/12/01 05:06:12;;;;;;;;;;;14.30;97.20;;;;;;5076775;28;20297;-65
2022/12/01 05:08:38;;;;;;;;;;;;;;;;;;5108900;28;20388;-65
2022/12/01 05:11:06;;;;;;;;;;;14.10;97.20;;;;;;5063534;28;20015;-65
2022/12/01 05:13:32;;;;;;;;;;;14.10;97.20;;;;;;5075060;28;20011;-65
2022/12/01 05:16:10;;;;;;;;;;;14.10;97.20;;;;;;5075026;28;20011;-65
2022/12/01 05:18:36;;;;;;;;;;;14.30;97.10;;;;;;5090887;28;20401;-65
2022/12/01 05:21:02;;;;;;;;;;;14.10;97.10;;;;;;5075386;28;19932;-65
2022/12/01 05:23:28;;;;;;;;;;;;;;;;;;5073994;28;20251;-65
2022/12/01 05:25:54;;;;;;;;;;;14.30;96.70;;;;;;5073960;28;19924;-66
2022/12/01 05:28:20;;;;;;;;;;;;;;;;;;5054599;28;19931;-65
2022/12/01 05:30:46;;;;;;;;;;;14.20;97.10;;;;;;5090231;28;20336;-65
2022/12/01 05:33:12;;;;;;;;;;;14.30;97.10;;;;;;5057358;28;19932;-65
2022/12/01 05:35:37;;;;;;;;;;;14.30;97.20;;;;;;5075672;28;19924;-65
2022/12/01 05:38:03;;;;;;;;;;;14.10;97.10;;;;;;5073982;28;19921;-65
2022/12/01 05:40:29;;;;;;;;;;;14.20;97.10;;;;;;5059585;28;20297;-65
2022/12/01 05:42:55;;;;;;;;;;;;;;;;;;5074178;28;20007;-66
2022/12/01 05:45:21;;;;;;;;;;;14.40;97.10;;;;;;5066893;28;19970;-65
2022/12/01 05:47:46;;;;;;;;;;;14.30;97.10;;;;;;5073571;28;19933;-66
2022/12/01 05:50:12;;;;;;;;;;;14.20;97.10;;;;;;5075369;28;19928;-65
2022/12/01 05:52:38;;;;;;;;;;;14.10;97.10;;;;;;5056381;28;19924;-65
2022/12/01 05:55:04;;;;;;;;;;;14.20;97.10;;;;;;5073737;28;19924;-66
2022/12/01 05:57:30;;;;;;;;;;;14.20;97.10;;;;;;5076418;28;20291;-65
2022/12/01 05:59:55;;;;;;;;;;;14.40;97.20;;;;;;5057387;28;19963;-65
2022/12/01 06:02:21;;;;;;;;;;;14.10;97.00;;;;;;5072063;28;19982;-65
2022/12/01 06:04:47;;;;;;;;;;;14.40;97.10;;;;;;5075039;28;19928;-65
2022/12/01 06:07:12;;;;;;;;;;;14.20;97.10;;;;;;5075181;28;19925;-65
2022/12/01 06:09:38;;;;;;;;;;;14.50;97.20;;;;;;5075041;28;20069;-67
2022/12/01 06:12:04;;;;;;;;;;;14.50;97.20;;;;;;5074395;28;19924;-66
2022/12/01 06:14:29;;;;;;;;;;;14.40;97.10;;;;;;5074698;28;19938;-65
2022/12/01 06:16:55;;;;;;;;;;;14.30;97.00;;;;;;5076178;28;19931;-65
2022/12/01 06:19:21;;;;;;;;;;;14.20;97.10;;;;;;5054770;28;19924;-66
2022/12/01 06:21:47;;;;;;;;;;;;;;;;;;5074404;28;19971;-69
2022/12/01 06:24:12;;;;;;;;;;;14.30;97.10;;;;;;5074199;28;19928;-66
2022/12/01 06:26:38;;;;;;;;;;;14.10;97.00;;;;;;5073543;28;20393;-65
2022/12/01 06:29:03;;;;;;;;;;;14.40;97.10;;;;;;5060784;28;20281;-65
2022/12/01 06:31:29;;;;;;;;;;;14.10;97.00;;;;;;5077651;28;20389;-67
2022/12/01 06:33:55;;;;;;;;;;;14.20;97.10;;;;;;5073823;28;19924;-68
2022/12/01 06:36:20;;;;;;;;;;;14.30;97.10;;;;;;5057025;28;19924;-67
2022/12/01 06:38:46;;;;;;;;;;;14.10;97.10;;;;;;5090334;28;19924;-68
2022/12/01 06:41:11;;;;;;;;;;;14.10;97.10;;;;;;5073675;28;19925;-69
2022/12/01 06:43:37;;;;;;;;;;;14.10;97.10;;;;;;5074620;28;19925;-68
2022/12/01 06:46:03;;;;;;;;;;;14.30;97.10;;;;;;5073656;28;19927;-65
2022/12/01 06:48:29;;;;;;;;;;;14.40;97.20;;;;;;5056528;28;19931;-65
2022/12/01 06:50:58;;;;;;;;;;;14.20;97.10;;;;;;5073760;28;19975;-65
2022/12/01 06:53:26;;;;;;;;;;;14.20;97.10;;;;;;5053205;28;19979;-66
2022/12/01 06:55:51;;;;;;;;;;;14.40;97.10;;;;;;5054544;28;20027;-67
2022/12/01 06:58:17;;;;;;;;;;;14.10;97.10;;;;;;5054280;28;20004;-65
2022/12/01 07:00:43;;;;;;;;;;;14.10;97.10;;;;;;5036540;28;19925;-65
2022/12/01 07:03:08;;;;;;;;;;;14.40;97.10;;;;;;5023798;28;19931;-65
2022/12/01 07:05:34;;;;;;;;;;;14.20;97.00;;;;;;5073720;28;19931;-65
2022/12/01 07:08:00;;;;;;;;;;;14.10;97.00;;;;;;5072223;28;20018;-65
2022/12/01 07:10:26;;;;;;;;;;;14.20;97.10;;;;;;5054362;28;20443;-66
2022/12/01 07:12:52;;;;;;;;;;;;;;;;;;5067231;28;19924;-66
2022/12/01 07:15:18;;;;;;;;;;;14.40;97.10;;;;;;5108056;27;19967;-65
2022/12/01 07:17:44;;;;;;;;;;;14.20;97.00;;;;;;5072648;28;20428;-66
2022/12/01 07:20:10;;;;;;;;;;;14.20;97.00;;;;;;5072458;28;20524;-65
2022/12/01 07:22:36;;;;;;;;;;;14.30;97.10;;;;;;5105559;28;19978;-65
2022/12/01 07:25:01;;;;;;;;;;;14.10;97.00;;;;;;5074363;28;20382;-67
2022/12/01 07:27:30;;;;;;;;;;;14.30;97.00;;;;;;5063227;28;19929;-64
2022/12/01 07:29:56;;;;;;;;;;;14.20;97.10;;;;;;5073560;28;19928;-64
2022/12/01 07:32:22;;;;;;;;;;;14.30;97.10;;;;;;5070303;28;19934;-65
2022/12/01 07:34:47;;;;;;;;;;;14.40;97.10;;;;;;5090174;28;19970;-65
2022/12/01 07:37:13;;;;;;;;;;;14.30;97.00;;;;;;5073092;28;19924;-65
2022/12/01 07:39:38;;;;;;;;;;;14.20;97.00;;;;;;5073549;28;19925;-65
2022/12/01 07:42:04;;;;;;;;;;;;;;;;;;5069623;28;19925;-69
2022/12/01 07:44:30;;;;;;;;;;;14.30;96.90;;;;;;5076383;28;19985;-65
2022/12/01 07:46:56;;;;;;;;;;;14.60;96.90;;;;;;5071469;28;20019;-65
2022/12/01 07:49:21;;;;;;;;;;;14.40;96.90;;;;;;5072874;28;19972;-67
2022/12/01 07:51:47;;;;;;;;;;;14.50;96.90;;;;;;5073574;28;20022;-65
2022/12/01 07:54:13;;;;;;;;;;;;;;;;;;5071644;28;20374;-65
2022/12/01 07:56:39;;;;;;;;;;;14.40;96.90;;;;;;5073662;28;20381;-65
2022/12/01 07:59:05;;;;;;;;;;;14.40;96.90;;;;;;5070366;28;19932;-65
2022/12/01 08:01:30;;;;;;;;;;;14.50;96.90;;;;;;5053540;28;20453;-65
2022/12/01 08:03:56;;;;;;;;;;;14.50;96.90;;;;;;5052336;28;19974;-65
2022/12/01 08:06:22;;;;;;;;;;;;;;;;;;5053167;28;19973;-67
2022/12/01 08:08:48;;;;;;;;;;;;;;;;;;5073695;28;20377;-65
2022/12/01 08:11:15;;;;;;;;;;;14.80;97.00;;;;;;5076586;28;20310;-65
2022/12/01 08:13:41;;;;;;;;;;;14.40;96.90;;;;;;5076269;28;19931;-65
2022/12/01 08:16:07;;;;;;;;;;;;;;;;;;5057333;28;19933;-68
2022/12/01 08:18:33;;;;;;;;;;;14.30;96.80;;;;;;5074435;28;20297;-66
2022/12/01 08:20:59;;;;;;;;;;;14.80;97.00;;;;;;5110115;28;19924;-65
2022/12/01 08:23:24;;;;;;;;;;;14.60;96.90;;;;;;5076114;28;19920;-65
2022/12/01 08:25:51;;;;;;;;;;;14.60;96.80;;;;;;5075361;28;19932;-65
2022/12/01 08:28:17;;;;;;;;;;;14.50;96.80;;;;;;5076121;28;19928;-65
2022/12/01 08:30:43;;;;;;;;;;;14.50;96.80;;;;;;5075915;28;19927;-65
2022/12/01 08:33:09;;;;;;;;;;;14.60;96.80;;;;;;5074702;28;19925;-65
2022/12/01 08:35:35;;;;;;;;;;;;;;;;;;5064227;28;19924;-65
2022/12/01 08:38:00;;;;;;;;;;;14.50;96.80;;;;;;5077032;28;19931;-65
2022/12/01 08:40:26;;;;;;;;;;;14.50;96.80;;;;;;5077141;28;19983;-68
2022/12/01 08:42:52;;;;;;;;;;;14.40;96.70;;;;;;5054791;28;19924;-67
2022/12/01 08:45:18;;;;;;;;;;;14.60;96.80;;;;;;5074438;28;20029;-67
2022/12/01 08:47:43;;;;;;;;;;;14.70;96.90;;;;;;5059113;28;19925;-70
2022/12/01 08:50:10;;;;;;;;;;;14.50;96.70;;;;;;5072993;28;19924;-71
2022/12/01 08:52:35;;;;;;;;;;;14.60;96.80;;;;;;5055736;28;20046;-66
2022/12/01 08:55:01;;;;;;;;;;;14.60;96.60;;;;;;5061050;28;19928;-67
2022/12/01 08:57:30;;;;;;;;;;;14.60;96.50;;;;;;5076122;28;20002;-67
2022/12/01 08:59:55;;;;;;;;;;;14.60;96.50;;;;;;5076983;28;19963;-67
2022/12/01 09:02:21;;;;;;;;;;;14.80;96.60;;;;;;5075659;28;19964;-68
2022/12/01 09:04:48;;;;;;;;;;;14.80;96.50;;;;;;5075654;28;20348;-69
2022/12/01 09:07:15;;;;;;;;;;;14.90;96.40;;;;;;5070701;28;20286;-67
2022/12/01 09:09:41;;;;;;;;;;;14.50;96.40;;;;;;5055527;28;20337;-66
2022/12/01 09:12:07;;;;;;;;;;;14.40;96.40;;;;;;5038787;28;19933;-67
2022/12/01 09:14:40;;;;;;;;;;;14.60;96.50;;;;;;5055498;28;19924;-66
2022/12/01 09:17:06;;;;;;;;;;;14.70;96.40;;;;;;5022402;28;19925;-68
2022/12/01 09:19:32;;;;;;;;;;;;;;;;;;5074887;28;20340;-67
2022/12/01 09:21:58;;;;;;;;;;;14.60;96.40;;;;;;5074477;28;20448;-67
2022/12/01 09:24:24;;;;;;;;;;;14.60;96.10;;;;;;5075448;28;19928;-67
2022/12/01 09:26:50;;;;;;;;;;;;;;;;;;5074923;28;19969;-66
2022/12/01 09:29:15;;;;;;;;;;;14.90;96.50;;;;;;5076353;28;19936;-66
2022/12/01 09:31:41;;;;;;;;;;;14.50;96.40;;;;;;5058219;28;19924;-69
2022/12/01 09:34:09;;;;;;;;;;;14.80;96.50;;;;;;5075094;28;20011;-68
2022/12/01 09:36:35;;;;;;;;;;;;;;;;;;5058108;28;19931;-67
2022/12/01 09:39:01;;;;;;;;;;;14.60;96.30;;;;;;5073979;28;19924;-68
2022/12/01 09:41:26;;;;;;;;;;;14.50;96.20;;;;;;5073928;28;19974;-70
2022/12/01 09:43:57;;;;;;;;;;;14.50;96.30;;;;;;5108785;28;19925;-67
2022/12/01 09:46:31;;;;;;;;;;;14.70;96.30;;;;;;5057857;28;19928;-70
2022/12/01 09:48:56;;;;;;;;;;;14.70;96.40;;;;;;5075290;28;19950;-67
2022/12/01 09:51:23;;;;;;;;;;;14.70;96.30;;;;;;5053319;28;19925;-71
2022/12/01 09:53:49;;;;;;;;;;;14.80;96.30;;;;;;5015515;28;20441;-65
2022/12/01 09:56:22;;;;;;;;;;;14.60;96.30;;;;;;5001403;28;19933;-67
2022/12/01 09:59:01;;;;;;;;;;;14.90;96.20;;;;;;5042452;28;19925;-67
2022/12/01 10:01:31;;;;;;;;;;;14.70;96.10;;;;;;4999645;28;19937;-66
2022/12/01 10:03:58;;;;;;;;;;;15.00;96.20;;;;;;5064014;28;19925;-67
2022/12/01 10:06:26;;;;;;;;;;;14.60;96.00;;;;;;5047960;28;19952;-67
2022/12/01 10:08:52;;;;;;;;;;;;;;;;;;5028691;28;20275;-67
2022/12/01 10:11:18;;;;;;;;;;;;;;;;;;5023078;28;19929;-65
2022/12/01 10:13:44;;;;;;;;;;;14.80;96.10;;;;;;5033086;28;20292;-68
2022/12/01 10:16:11;;;;;;;;;;;14.80;96.10;;;;;;5032239;28;19925;-70
2022/12/01 10:18:48;;;;;;;;;;;14.80;96.20;;;;;;5030504;28;19928;-68
2022/12/01 10:21:29;;;;;;;;;;;14.60;96.20;;;;;;5048564;28;20323;-67
2022/12/01 10:24:01;;;;;;;;;;;14.70;96.30;;;;;;5067034;28;19925;-70
2022/12/01 10:26:42;;;;;;;;;;;14.70;96.30;;;;;;5067394;28;20325;-65
2022/12/01 10:29:09;;;;;;;;;;;;;;;;;;5065855;28;19926;-65
2022/12/01 10:31:44;;;;;;;;;;;14.70;96.20;;;;;;5021554;28;19922;-67
2022/12/01 10:34:10;;;;;;;;;;;;;;;;;;5016098;28;19925;-68
2022/12/01 10:36:35;;;;;;;;;;;14.90;96.30;;;;;;5031888;28;19925;-68
2022/12/01 10:39:05;;;;;;;;;;;14.40;96.20;;;;;;5034929;28;19925;-68
2022/12/01 10:41:31;;;;;;;;;;;14.60;96.20;;;;;;5033422;28;19932;-67
2022/12/01 10:43:59;;;;;;;;;;;14.60;96.20;;;;;;5034469;28;19931;-65
2022/12/01 10:46:25;;;;;;;;;;;;;;;;;;5034199;28;19932;-66
2022/12/01 10:48:51;;;;;;;;;;;;;;;;;;5065366;28;19932;-66
2022/12/01 10:51:19;;;;;;;;;;;14.80;96.30;;;;;;5013425;28;19925;-68
2022/12/01 10:53:45;;;;;;;;;;;;;;;;;;5014631;28;19925;-65
2022/12/01 10:56:14;;;;;;;;;;;14.40;96.00;;;;;;5013463;28;20075;-65
2022/12/01 10:58:43;;;;;;;;;;;14.40;96.30;;;;;;5033460;28;19933;-68
2022/12/01 11:01:14;;;;;;;;;;;14.60;96.30;;;;;;5034625;28;19921;-67
2022/12/01 11:03:39;;;;;;;;;;;14.70;96.40;;;;;;5034359;28;20374;-65
2022/12/01 11:06:05;;;;;;;;;;;;;;;;;;5031026;28;19925;-69
2022/12/01 11:08:31;;;;;;;;;;;;;;;;;;5029434;28;19933;-68
2022/12/01 11:10:58;;;;;;;;;;;14.70;96.40;;;;;;5021133;28;19987;-68
2022/12/01 11:13:28;;;;;;;;;;;14.40;96.20;;;;;;5065689;28;19925;-65
2022/12/01 11:15:54;;;;;;;;;;;14.50;96.20;;;;;;5016213;28;19940;-66
2022/12/01 11:18:26;;;;;;;;;;;14.70;96.40;;;;;;5021466;28;19925;-65
2022/12/01 11:21:03;;;;;;;;;;;14.60;96.40;;;;;;5033981;28;20438;-66
2022/12/01 11:23:29;;;;;;;;;;;14.50;96.40;;;;;;5010601;28;20363;-65
2022/12/01 11:25:57;;;;;;;;;;;14.60;96.60;;;;;;5018849;28;19932;-65
2022/12/01 11:28:23;;;;;;;;;;;;;;;;;;5028978;28;19927;-65
2022/12/01 11:31:02;;;;;;;;;;;14.40;96.40;;;;;;5018825;28;20395;-65
2022/12/01 11:33:28;;;;;;;;;;;14.30;96.40;;;;;;5029383;28;19926;-65
2022/12/01 11:35:54;;;;;;;;;;;14.50;96.40;;;;;;5048922;28;19986;-66
2022/12/01 11:38:23;;;;;;;;;;;14.40;96.50;;;;;;5033054;28;19931;-64
2022/12/01 11:40:53;;;;;;;;;;;14.70;96.50;;;;;;5058235;28;19925;-65
2022/12/01 11:43:34;;;;;;;;;;;14.40;96.40;;;;;;5012328;28;20012;-65
2022/12/01 11:46:04;;;;;;;;;;;14.80;96.30;;;;;;5016259;28;19932;-65
2022/12/01 11:48:30;;;;;;;;;;;14.40;96.10;;;;;;5032921;28;20283;-66
2022/12/01 11:50:56;;;;;;;;;;;;;;;;;;5032279;28;19951;-65
2022/12/01 11:53:25;;;;;;;;;;;14.50;96.20;;;;;;5032421;28;20371;-68
2022/12/01 11:55:50;;;;;;;;;;;14.60;96.20;;;;;;5029465;28;20295;-65
2022/12/01 11:58:16;;;;;;;;;;;14.50;96.10;;;;;;5030065;28;19935;-68
2022/12/01 12:00:46;;;;;;;;;;;14.40;96.10;;;;;;5068874;28;19933;-70
2022/12/01 12:03:12;;;;;;;;;;;;;;;;;;5033416;28;20067;-68
2022/12/01 12:05:37;;;;;;;;;;;14.60;96.20;;;;;;5030784;28;19925;-70
2022/12/01 12:08:16;;;;;;;;;;;14.50;96.30;;;;;;5063464;28;19925;-65
2022/12/01 12:11:01;;;;;;;;;;;14.50;96.30;;;;;;5016128;28;20394;-67
2022/12/01 12:13:27;;;;;;;;;;;14.50;96.40;;;;;;5033495;28;19929;-65
2022/12/01 12:15:57;;;;;;;;;;;14.50;96.30;;;;;;5023229;28;19932;-65
2022/12/01 12:18:25;;;;;;;;;;;14.40;96.30;;;;;;5014564;28;20035;-65
2022/12/01 12:21:00;;;;;;;;;;;14.40;96.20;;;;;;5065880;28;19925;-68
2022/12/01 12:23:45;;;;;;;;;;;14.60;96.20;;;;;;5065503;28;19980;-66
2022/12/01 12:26:16;;;;;;;;;;;14.30;96.10;;;;;;5063200;28;19932;-66
2022/12/01 12:28:42;;;;;;;;;;;;;;;;;;5057637;28;19925;-69
2022/12/01 12:31:10;;;;;;;;;;;14.40;96.20;;;;;;5029191;28;19925;-65
2022/12/01 12:33:36;;;;;;;;;;;;;;;;;;4995980;28;19980;-66
2022/12/01 12:36:02;;;;;;;;;;;;;;;;;;5029727;28;20425;-68
2022/12/01 12:38:43;;;;;;;;;;;14.80;96.30;;;;;;5031733;28;19921;-66
2022/12/01 12:41:09;;;;;;;;;;;14.50;96.20;;;;;;5064977;28;20450;-65
2022/12/01 12:43:35;;;;;;;;;;;;;;;;;;5012218;28;20051;-69
2022/12/01 12:46:00;;;;;;;;;;;14.70;96.10;;;;;;5030243;28;19959;-64
2022/12/01 12:48:29;;;;;;;;;;;14.70;96.00;;;;;;5056732;28;20030;-65
2022/12/01 12:50:55;;;;;;;;;;;14.50;96.10;;;;;;5030046;28;19975;-64
2022/12/01 12:53:23;;;;;;;;;;;14.40;96.00;;;;;;5033711;28;20366;-65
2022/12/01 12:55:49;;;;;;;;;;;14.40;95.90;;;;;;5035180;28;20340;-64
2022/12/01 12:58:18;;;;;;;;;;;14.50;96.00;;;;;;5037168;28;20011;-65
2022/12/01 13:00:51;;;;;;;;;;;14.60;96.00;;;;;;5068845;28;20398;-65
2022/12/01 13:03:25;;;;;;;;;;;14.60;96.00;;;;;;5036977;28;19974;-65
2022/12/01 13:05:53;;;;;;;;;;;14.60;96.00;;;;;;5043849;28;19926;-67
2022/12/01 13:08:33;;;;;;;;;;;14.60;95.90;;;;;;4999607;28;19925;-68
2022/12/01 13:11:03;;;;;;;;;;;14.60;96.10;;;;;;4999454;28;19997;-66
2022/12/01 13:13:40;;;;;;;;;;;14.40;96.10;;;;;;5015521;28;19925;-62
2022/12/01 13:16:08;;;;;;;;;;;14.50;96.00;;;;;;4999493;28;20020;-64
2022/12/01 13:18:36;;;;;;;;;;;14.60;96.10;;;;;;5048473;28;19931;-65
2022/12/01 13:21:03;;;;;;;;;;;14.60;96.10;;;;;;5016624;28;19929;-65
2022/12/01 13:23:28;;;;;;;;;;;14.60;96.10;;;;;;5029266;28;20437;-64
2022/12/01 13:25:55;;;;;;;;;;;14.50;96.00;;;;;;5018911;28;20031;-64
2022/12/01 13:28:26;;;;;;;;;;;14.50;96.00;;;;;;5018579;28;19932;-64
2022/12/01 13:30:58;;;;;;;;;;;14.50;95.90;;;;;;5067494;28;19929;-67
2022/12/01 13:33:24;;;;;;;;;;;14.50;95.90;;;;;;4998055;28;19925;-67
2022/12/01 13:35:53;;;;;;;;;;;14.80;95.80;;;;;;5064698;28;19931;-67
2022/12/01 13:38:28;;;;;;;;;;;14.50;95.80;;;;;;5060784;28;20291;-63
2022/12/01 13:41:10;;;;;;;;;;;14.50;95.80;;;;;;5029211;28;19925;-63
2022/12/01 13:43:36;;;;;;;;;;;;;;;;;;5031159;28;20135;-66
2022/12/01 13:46:01;;;;;;;;;;;14.40;95.80;;;;;;5034222;28;19929;-62
2022/12/01 13:48:27;;;;;;;;;;;14.60;95.80;;;;;;5017307;28;19925;-64
2022/12/01 13:50:54;;;;;;;;;;;14.60;95.80;;;;;;5033644;28;19925;-62
2022/12/01 13:53:22;;;;;;;;;;;14.70;95.80;;;;;;5030292;28;19979;-66
2022/12/01 13:55:48;;;;;;;;;;;;;;;;;;5065791;28;20029;-64
2022/12/01 13:58:14;;;;;;;;;;;;;;;;;;5056054;28;20065;-67
2022/12/01 14:00:41;;;;;;;;;;;14.00;95.50;;;;;;5022639;28;20004;-65
2022/12/01 14:03:13;;;;;;;;;;;14.40;95.70;;;;;;5031289;28;19925;-63
2022/12/01 14:05:39;;;;;;;;;;;14.40;95.60;;;;;;5013834;28;19926;-64
2022/12/01 14:08:05;;;;;;;;;;;;;;;;;;5014329;28;19933;-62
2022/12/01 14:10:30;;;;;;;;;;;14.50;95.60;;;;;;5019709;28;19932;-63
2022/12/01 14:12:58;;;;;;;;;;;14.50;95.50;;;;;;5034729;28;20012;-66
2022/12/01 14:15:41;;;;;;;;;;;14.30;95.40;;;;;;5014315;28;19932;-63
2022/12/01 14:18:19;;;;;;;;;;;14.60;95.50;;;;;;4998607;28;20291;-63
2022/12/01 14:20:45;;;;;;;;;;;14.30;95.30;;;;;;5058065;28;19925;-64
2022/12/01 14:23:15;;;;;;;;;;;14.40;95.50;;;;;;5050275;28;19927;-67
2022/12/01 14:25:41;;;;;;;;;;;14.40;95.50;;;;;;5017049;28;20025;-67
2022/12/01 14:28:11;;;;;;;;;;;14.50;95.40;;;;;;5030260;28;19976;-68
2022/12/01 14:30:46;;;;;;;;;;;14.60;95.50;;;;;;5024452;28;19929;-67
2022/12/01 14:33:31;;;;;;;;;;;14.60;95.50;;;;;;5030188;28;19971;-67
2022/12/01 14:35:59;;;;;;;;;;;14.50;95.50;;;;;;5035602;28;19929;-65
2022/12/01 14:38:25;;;;;;;;;;;;;;;;;;5061603;28;19932;-66